Cedar Rapids, IA (52401)

2:34 PM CDT on July 27, 2016 (GMT -0500)
Downtown Cedar Rapids - KCRG | | Change Station

Elev 768 ft 41.98 °N, 91.66 °W | Updated 43 seconds ago

Partly Cloudy
Partly Cloudy
84.9 °F
Feels Like 87 °F
N
4.9
Wind Variable Wind from South
Gusts 8.0 mph

Today
High -- | Low -- °F
--% Chance of Precip.
Yesterday
High -- | Low -- °F
Precip. -- in
Pressure 29.97 in
Visibility 10.0 miles
Clouds Few 6000 ft
Heat Index 87 °F
Dew Point 66 °F
Humidity 53%
Rainfall 0.00 in
Snow Depth Not available.
5:55 AM 8:29 PM
Last Quarter, 40% visible
METAR KCID 271852Z 17005KT 10SM FEW060 28/21 A2998 RMK AO2 SLP148 T02830206
Pressure 29.97 in
Visibility 10.0 miles
Clouds Few 6000 ft
Heat Index 87 °F
Dew Point 66 °F
Humidity 53%
Rainfall 0.00 in
Snow Depth Not available.
5:55 AM 8:29 PM
Last Quarter, 40% visible
METAR KCID 271852Z 17005KT 10SM FEW060 28/21 A2998 RMK AO2 SLP148 T02830206

10-Day Weather Forecast

Almanac

Astronomy

Jul. 27, 2016 Rise Set
Actual Time
Civil Twilight
Nautical Twilight
Astronomical Twilight
Moon
Length of Visible Light
Length of Day
Tomorrow will be .
, % of the Moon is Illuminated

Today's Extremes

State Highs State Lows

Community

WunderPhotos

Upload Photos

1,927,916 photos uploaded!

WunderBlog® & News

Nearby

Air Quality

  Air Quality AQ Index Pollutant
Not available.

Snow Depth

Station Depth Elevation

Earthquake Activity

City Distance Mag. Time & Date
Minimum magnitude displayed is 2.5.

Coastal Water Temperatures

Place Temperature

Stations

Nearby Weather Stations

Station Location Temp. Windchill Dew Point Humidity Wind Precip. Elev Updated Type
                   

Watches & Warnings

There are currently no watches in effect.